sensor_id;sensor_type;location;lat;lon;timestamp;temperature;humidity
20158;DHT22;10239;56.820;24.416;2023-02-19T00:01:46;3.70;99.90
20158;DHT22;10239;56.820;24.416;2023-02-19T00:04:19;3.70;99.90
20158;DHT22;10239;56.820;24.416;2023-02-19T00:06:49;3.70;99.90
20158;DHT22;10239;56.820;24.416;2023-02-19T00:09:18;3.70;99.90
20158;DHT22;10239;56.820;24.416;2023-02-19T00:11:46;3.70;99.90
20158;DHT22;10239;56.820;24.416;2023-02-19T00:14:16;3.70;99.90
20158;DHT22;10239;56.820;24.416;2023-02-19T00:16:44;3.70;99.90
20158;DHT22;10239;56.820;24.416;2023-02-19T00:19:15;3.60;99.90
20158;DHT22;10239;56.820;24.416;2023-02-19T00:21:43;3.60;99.90
20158;DHT22;10239;56.820;24.416;2023-02-19T00:24:12;3.70;99.90
20158;DHT22;10239;56.820;24.416;2023-02-19T00:26:41;3.70;99.90
20158;DHT22;10239;56.820;24.416;2023-02-19T00:29:16;3.70;99.90
20158;DHT22;10239;56.820;24.416;2023-02-19T00:31:44;3.80;99.90
20158;DHT22;10239;56.820;24.416;2023-02-19T00:34:13;3.70;99.90
20158;DHT22;10239;56.820;24.416;2023-02-19T00:36:41;3.70;99.90
20158;DHT22;10239;56.820;24.416;2023-02-19T00:39:14;3.70;99.90
20158;DHT22;10239;56.820;24.416;2023-02-19T00:41:43;3.70;99.90
20158;DHT22;10239;56.820;24.416;2023-02-19T00:44:11;3.70;99.90
20158;DHT22;10239;56.820;24.416;2023-02-19T00:46:44;3.50;99.90
20158;DHT22;10239;56.820;24.416;2023-02-19T00:49:19;3.60;99.90
20158;DHT22;10239;56.820;24.416;2023-02-19T00:51:47;3.60;99.90
20158;DHT22;10239;56.820;24.416;2023-02-19T00:54:16;3.60;99.90
20158;DHT22;10239;56.820;24.416;2023-02-19T00:56:44;3.60;99.90
20158;DHT22;10239;56.820;24.416;2023-02-19T00:59:12;3.60;99.90
20158;DHT22;10239;56.820;24.416;2023-02-19T01:01:40;3.60;99.90
20158;DHT22;10239;56.820;24.416;2023-02-19T01:04:10;3.60;99.90
20158;DHT22;10239;56.820;24.416;2023-02-19T01:06:38;3.50;99.90
20158;DHT22;10239;56.820;24.416;2023-02-19T01:09:05;3.40;99.90
20158;DHT22;10239;56.820;24.416;2023-02-19T01:11:34;3.60;99.90
20158;DHT22;10239;56.820;24.416;2023-02-19T01:14:02;3.70;99.90
20158;DHT22;10239;56.820;24.416;2023-02-19T01:16:31;3.60;99.90
20158;DHT22;10239;56.820;24.416;2023-02-19T01:18:59;3.70;99.90
20158;DHT22;10239;56.820;24.416;2023-02-19T01:21:28;3.60;99.90
20158;DHT22;10239;56.820;24.416;2023-02-19T01:23:57;3.50;99.90
20158;DHT22;10239;56.820;24.416;2023-02-19T01:26:30;3.60;99.90
20158;DHT22;10239;56.820;24.416;2023-02-19T01:28:59;3.60;99.90
20158;DHT22;10239;56.820;24.416;2023-02-19T01:31:27;3.60;99.90
20158;DHT22;10239;56.820;24.416;2023-02-19T01:33:58;3.60;99.90
20158;DHT22;10239;56.820;24.416;2023-02-19T01:36:27;3.60;99.90
20158;DHT22;10239;56.820;24.416;2023-02-19T01:38:55;3.60;99.90
20158;DHT22;10239;56.820;24.416;2023-02-19T01:41:24;3.60;99.90
20158;DHT22;10239;56.820;24.416;2023-02-19T01:46:45;3.60;99.90
20158;DHT22;10239;56.820;24.416;2023-02-19T01:49:19;3.60;99.90
20158;DHT22;10239;56.820;24.416;2023-02-19T01:51:56;3.60;99.90
20158;DHT22;10239;56.820;24.416;2023-02-19T01:54:28;3.60;99.90
20158;DHT22;10239;56.820;24.416;2023-02-19T01:56:58;3.50;99.90
20158;DHT22;10239;56.820;24.416;2023-02-19T01:59:26;3.40;99.90
20158;DHT22;10239;56.820;24.416;2023-02-19T02:01:54;3.40;99.90
20158;DHT22;10239;56.820;24.416;2023-02-19T02:04:22;3.40;99.90
20158;DHT22;10239;56.820;24.416;2023-02-19T02:06:54;3.50;99.90
20158;DHT22;10239;56.820;24.416;2023-02-19T02:09:26;3.50;99.90
20158;DHT22;10239;56.820;24.416;2023-02-19T02:12:13;3.40;99.90
20158;DHT22;10239;56.820;24.416;2023-02-19T02:14:44;3.40;99.90
20158;DHT22;10239;56.820;24.416;2023-02-19T02:17:19;3.50;99.90
20158;DHT22;10239;56.820;24.416;2023-02-19T02:26:28;3.40;99.90
20158;DHT22;10239;56.820;24.416;2023-02-19T02:29:27;3.30;99.90
20158;DHT22;10239;56.820;24.416;2023-02-19T02:32:04;3.30;99.90
20158;DHT22;10239;56.820;24.416;2023-02-19T02:34:44;3.30;99.90
20158;DHT22;10239;56.820;24.416;2023-02-19T02:37:15;3.30;99.90
20158;DHT22;10239;56.820;24.416;2023-02-19T02:39:44;3.40;99.90
20158;DHT22;10239;56.820;24.416;2023-02-19T02:42:13;3.40;99.90
20158;DHT22;10239;56.820;24.416;2023-02-19T02:48:44;3.40;99.90
20158;DHT22;10239;56.820;24.416;2023-02-19T02:51:39;3.30;99.90
20158;DHT22;10239;56.820;24.416;2023-02-19T02:54:17;3.40;99.90
20158;DHT22;10239;56.820;24.416;2023-02-19T02:57:08;3.40;99.90
20158;DHT22;10239;56.820;24.416;2023-02-19T02:59:51;3.40;99.90
20158;DHT22;10239;56.820;24.416;2023-02-19T03:02:26;3.30;99.90
20158;DHT22;10239;56.820;24.416;2023-02-19T03:10:42;3.30;99.90
20158;DHT22;10239;56.820;24.416;2023-02-19T03:13:14;3.30;99.90
20158;DHT22;10239;56.820;24.416;2023-02-19T03:16:08;3.30;99.90
20158;DHT22;10239;56.820;24.416;2023-02-19T03:18:57;3.30;99.90
20158;DHT22;10239;56.820;24.416;2023-02-19T03:22:08;3.30;99.90
20158;DHT22;10239;56.820;24.416;2023-02-19T03:24:42;3.20;99.90
20158;DHT22;10239;56.820;24.416;2023-02-19T03:27:33;3.20;99.90
20158;DHT22;10239;56.820;24.416;2023-02-19T03:30:04;3.20;99.90
20158;DHT22;10239;56.820;24.416;2023-02-19T03:32:43;3.10;99.90
20158;DHT22;10239;56.820;24.416;2023-02-19T03:35:22;3.10;99.90
20158;DHT22;10239;56.820;24.416;2023-02-19T03:38:08;3.20;99.90
20158;DHT22;10239;56.820;24.416;2023-02-19T03:41:01;3.20;99.90
20158;DHT22;10239;56.820;24.416;2023-02-19T03:43:37;3.10;99.90
20158;DHT22;10239;56.820;24.416;2023-02-19T03:46:20;3.00;99.90
20158;DHT22;10239;56.820;24.416;2023-02-19T03:48:57;3.10;99.90
20158;DHT22;10239;56.820;24.416;2023-02-19T03:51:27;3.20;99.90
20158;DHT22;10239;56.820;24.416;2023-02-19T03:54:14;3.20;99.90
20158;DHT22;10239;56.820;24.416;2023-02-19T03:57:23;3.10;99.90
20158;DHT22;10239;56.820;24.416;2023-02-19T03:59:55;3.10;99.90
20158;DHT22;10239;56.820;24.416;2023-02-19T04:05:17;3.10;99.90
20158;DHT22;10239;56.820;24.416;2023-02-19T04:07:48;3.10;99.90
20158;DHT22;10239;56.820;24.416;2023-02-19T04:10:22;3.00;99.90
20158;DHT22;10239;56.820;24.416;2023-02-19T04:12:56;3.00;99.90
20158;DHT22;10239;56.820;24.416;2023-02-19T04:15:28;3.00;99.90
20158;DHT22;10239;56.820;24.416;2023-02-19T04:18:01;3.00;99.90
20158;DHT22;10239;56.820;24.416;2023-02-19T04:20:35;3.00;99.90
20158;DHT22;10239;56.820;24.416;2023-02-19T04:23:06;3.00;99.90
20158;DHT22;10239;56.820;24.416;2023-02-19T04:25:35;2.90;99.90
20158;DHT22;10239;56.820;24.416;2023-02-19T04:28:04;2.90;99.90
20158;DHT22;10239;56.820;24.416;2023-02-19T04:30:31;3.00;99.90
20158;DHT22;10239;56.820;24.416;2023-02-19T04:32:59;3.00;99.90
20158;DHT22;10239;56.820;24.416;2023-02-19T04:35:27;2.90;99.90
20158;DHT22;10239;56.820;24.416;2023-02-19T04:37:55;2.90;99.90
20158;DHT22;10239;56.820;24.416;2023-02-19T04:40:22;3.00;99.90
20158;DHT22;10239;56.820;24.416;2023-02-19T04:42:50;3.00;99.90
20158;DHT22;10239;56.820;24.416;2023-02-19T04:45:17;2.90;99.90
20158;DHT22;10239;56.820;24.416;2023-02-19T04:47:44;3.00;99.90
20158;DHT22;10239;56.820;24.416;2023-02-19T04:50:12;2.90;99.90
20158;DHT22;10239;56.820;24.416;2023-02-19T04:52:39;3.00;99.90
20158;DHT22;10239;56.820;24.416;2023-02-19T04:55:07;2.90;99.90
20158;DHT22;10239;56.820;24.416;2023-02-19T04:57:35;2.90;99.90
20158;DHT22;10239;56.820;24.416;2023-02-19T05:00:03;2.90;99.90
20158;DHT22;10239;56.820;24.416;2023-02-19T05:02:30;2.80;99.90
20158;DHT22;10239;56.820;24.416;2023-02-19T05:04:58;2.80;99.90
20158;DHT22;10239;56.820;24.416;2023-02-19T05:07:26;2.80;99.90
20158;DHT22;10239;56.820;24.416;2023-02-19T05:09:53;2.80;99.90
20158;DHT22;10239;56.820;24.416;2023-02-19T05:12:21;2.70;99.90
20158;DHT22;10239;56.820;24.416;2023-02-19T05:14:48;2.70;99.90
20158;DHT22;10239;56.820;24.416;2023-02-19T05:17:16;2.60;99.90
20158;DHT22;10239;56.820;24.416;2023-02-19T05:19:44;2.70;99.90
20158;DHT22;10239;56.820;24.416;2023-02-19T05:22:11;2.60;99.90
20158;DHT22;10239;56.820;24.416;2023-02-19T05:24:39;2.60;99.90
20158;DHT22;10239;56.820;24.416;2023-02-19T05:27:06;2.50;99.90
20158;DHT22;10239;56.820;24.416;2023-02-19T05:29:34;2.60;99.90
20158;DHT22;10239;56.820;24.416;2023-02-19T05:32:01;2.60;99.90
20158;DHT22;10239;56.820;24.416;2023-02-19T05:34:28;2.50;99.90
20158;DHT22;10239;56.820;24.416;2023-02-19T05:36:56;2.50;99.90
20158;DHT22;10239;56.820;24.416;2023-02-19T05:39:24;2.50;99.90
20158;DHT22;10239;56.820;24.416;2023-02-19T05:41:51;2.50;99.90
20158;DHT22;10239;56.820;24.416;2023-02-19T05:44:19;2.40;99.90
20158;DHT22;10239;56.820;24.416;2023-02-19T05:46:46;2.40;99.90
20158;DHT22;10239;56.820;24.416;2023-02-19T05:49:14;2.40;99.90
20158;DHT22;10239;56.820;24.416;2023-02-19T05:51:41;2.40;99.90
20158;DHT22;10239;56.820;24.416;2023-02-19T05:54:08;2.40;99.90
20158;DHT22;10239;56.820;24.416;2023-02-19T05:56:38;2.50;99.90
20158;DHT22;10239;56.820;24.416;2023-02-19T05:59:15;2.50;99.90
20158;DHT22;10239;56.820;24.416;2023-02-19T06:01:44;2.50;99.90
20158;DHT22;10239;56.820;24.416;2023-02-19T06:04:12;2.60;99.90
20158;DHT22;10239;56.820;24.416;2023-02-19T06:06:41;2.50;99.90
20158;DHT22;10239;56.820;24.416;2023-02-19T06:09:09;2.50;99.90
20158;DHT22;10239;56.820;24.416;2023-02-19T06:11:37;2.50;99.90
20158;DHT22;10239;56.820;24.416;2023-02-19T06:14:05;2.40;99.90
20158;DHT22;10239;56.820;24.416;2023-02-19T06:16:32;2.40;99.90
20158;DHT22;10239;56.820;24.416;2023-02-19T06:19:06;2.40;99.90
20158;DHT22;10239;56.820;24.416;2023-02-19T06:21:35;2.50;99.90
20158;DHT22;10239;56.820;24.416;2023-02-19T06:24:05;2.50;99.90
20158;DHT22;10239;56.820;24.416;2023-02-19T06:26:32;2.60;99.90
20158;DHT22;10239;56.820;24.416;2023-02-19T06:29:00;2.60;99.90
20158;DHT22;10239;56.820;24.416;2023-02-19T06:31:27;2.60;99.90
20158;DHT22;10239;56.820;24.416;2023-02-19T06:33:55;2.60;99.90
20158;DHT22;10239;56.820;24.416;2023-02-19T06:36:24;2.70;99.90
20158;DHT22;10239;56.820;24.416;2023-02-19T06:38:51;2.70;99.90
20158;DHT22;10239;56.820;24.416;2023-02-19T06:41:19;2.80;99.90
20158;DHT22;10239;56.820;24.416;2023-02-19T06:43:46;3.00;99.90
20158;DHT22;10239;56.820;24.416;2023-02-19T06:46:14;3.10;99.90
20158;DHT22;10239;56.820;24.416;2023-02-19T06:48:43;3.20;99.90
20158;DHT22;10239;56.820;24.416;2023-02-19T06:51:12;3.30;99.90
20158;DHT22;10239;56.820;24.416;2023-02-19T06:53:40;3.50;99.90
20158;DHT22;10239;56.820;24.416;2023-02-19T06:56:54;3.70;99.90
20158;DHT22;10239;56.820;24.416;2023-02-19T06:59:15;3.80;99.90
20158;DHT22;10239;56.820;24.416;2023-02-19T07:01:43;3.90;99.90
20158;DHT22;10239;56.820;24.416;2023-02-19T07:04:11;3.90;99.90
20158;DHT22;10239;56.820;24.416;2023-02-19T07:06:39;4.10;99.90
20158;DHT22;10239;56.820;24.416;2023-02-19T07:09:07;5.50;99.90
20158;DHT22;10239;56.820;24.416;2023-02-19T07:11:37;5.60;99.90
20158;DHT22;10239;56.820;24.416;2023-02-19T07:14:06;5.30;99.90
20158;DHT22;10239;56.820;24.416;2023-02-19T07:16:35;4.90;99.90
20158;DHT22;10239;56.820;24.416;2023-02-19T07:19:03;4.80;99.90
20158;DHT22;10239;56.820;24.416;2023-02-19T07:21:30;5.10;99.90
20158;DHT22;10239;56.820;24.416;2023-02-19T07:23:57;5.70;99.90
20158;DHT22;10239;56.820;24.416;2023-02-19T07:26:25;5.60;99.90
20158;DHT22;10239;56.820;24.416;2023-02-19T07:28:53;5.30;99.90
20158;DHT22;10239;56.820;24.416;2023-02-19T07:31:22;5.10;99.90
20158;DHT22;10239;56.820;24.416;2023-02-19T07:33:51;5.00;99.90
20158;DHT22;10239;56.820;24.416;2023-02-19T07:36:19;4.90;99.90
20158;DHT22;10239;56.820;24.416;2023-02-19T07:38:55;4.80;99.90
20158;DHT22;10239;56.820;24.416;2023-02-19T07:41:24;4.60;99.90
20158;DHT22;10239;56.820;24.416;2023-02-19T07:43:55;4.50;99.90
20158;DHT22;10239;56.820;24.416;2023-02-19T07:46:23;4.50;99.90
20158;DHT22;10239;56.820;24.416;2023-02-19T07:48:50;4.50;99.90
20158;DHT22;10239;56.820;24.416;2023-02-19T07:51:19;4.40;99.90
20158;DHT22;10239;56.820;24.416;2023-02-19T07:53:48;4.30;99.90
20158;DHT22;10239;56.820;24.416;2023-02-19T07:56:19;4.20;99.90
20158;DHT22;10239;56.820;24.416;2023-02-19T07:58:47;4.20;99.90
20158;DHT22;10239;56.820;24.416;2023-02-19T08:01:16;4.20;99.90
20158;DHT22;10239;56.820;24.416;2023-02-19T08:03:44;4.20;99.90
20158;DHT22;10239;56.820;24.416;2023-02-19T08:06:14;4.10;99.90
20158;DHT22;10239;56.820;24.416;2023-02-19T08:08:41;4.00;99.90
20158;DHT22;10239;56.820;24.416;2023-02-19T08:11:09;4.10;99.90
20158;DHT22;10239;56.820;24.416;2023-02-19T08:13:55;4.20;99.90
20158;DHT22;10239;56.820;24.416;2023-02-19T08:16:22;4.10;99.90
20158;DHT22;10239;56.820;24.416;2023-02-19T08:19:08;4.00;99.90
20158;DHT22;10239;56.820;24.416;2023-02-19T08:21:36;4.00;99.90
20158;DHT22;10239;56.820;24.416;2023-02-19T08:24:04;4.10;99.90
20158;DHT22;10239;56.820;24.416;2023-02-19T08:26:32;4.00;99.90
20158;DHT22;10239;56.820;24.416;2023-02-19T08:29:00;3.90;99.90
20158;DHT22;10239;56.820;24.416;2023-02-19T08:31:27;3.80;99.90
20158;DHT22;10239;56.820;24.416;2023-02-19T08:33:54;3.70;99.90
20158;DHT22;10239;56.820;24.416;2023-02-19T08:36:22;3.70;99.90
20158;DHT22;10239;56.820;24.416;2023-02-19T08:38:49;3.60;99.90
20158;DHT22;10239;56.820;24.416;2023-02-19T08:41:17;3.60;99.90
20158;DHT22;10239;56.820;24.416;2023-02-19T08:43:44;3.60;99.90
20158;DHT22;10239;56.820;24.416;2023-02-19T08:46:12;3.70;99.90
20158;DHT22;10239;56.820;24.416;2023-02-19T08:48:40;3.80;99.90
20158;DHT22;10239;56.820;24.416;2023-02-19T08:51:10;3.80;99.90
20158;DHT22;10239;56.820;24.416;2023-02-19T08:53:39;3.70;99.90
20158;DHT22;10239;56.820;24.416;2023-02-19T08:56:13;3.70;99.90
20158;DHT22;10239;56.820;24.416;2023-02-19T08:58:41;3.60;99.90
20158;DHT22;10239;56.820;24.416;2023-02-19T09:01:10;3.80;99.90
20158;DHT22;10239;56.820;24.416;2023-02-19T09:03:38;3.70;99.90
20158;DHT22;10239;56.820;24.416;2023-02-19T09:06:06;3.70;99.90
20158;DHT22;10239;56.820;24.416;2023-02-19T09:08:34;3.80;99.90
20158;DHT22;10239;56.820;24.416;2023-02-19T09:11:03;3.70;99.90
20158;DHT22;10239;56.820;24.416;2023-02-19T09:13:33;3.80;99.90
20158;DHT22;10239;56.820;24.416;2023-02-19T09:16:03;3.70;99.90
20158;DHT22;10239;56.820;24.416;2023-02-19T09:18:31;3.80;99.90
20158;DHT22;10239;56.820;24.416;2023-02-19T09:21:00;3.70;99.90
20158;DHT22;10239;56.820;24.416;2023-02-19T09:23:29;3.70;99.90
20158;DHT22;10239;56.820;24.416;2023-02-19T09:25:58;3.80;99.90
20158;DHT22;10239;56.820;24.416;2023-02-19T09:28:26;3.80;99.90
20158;DHT22;10239;56.820;24.416;2023-02-19T09:30:54;3.70;99.90
20158;DHT22;10239;56.820;24.416;2023-02-19T09:33:22;3.70;99.90
20158;DHT22;10239;56.820;24.416;2023-02-19T09:35:50;3.70;99.90
20158;DHT22;10239;56.820;24.416;2023-02-19T09:38:18;3.60;99.90
20158;DHT22;10239;56.820;24.416;2023-02-19T09:40:45;3.50;99.90
20158;DHT22;10239;56.820;24.416;2023-02-19T09:43:19;3.60;99.90
20158;DHT22;10239;56.820;24.416;2023-02-19T09:45:54;3.60;99.90
20158;DHT22;10239;56.820;24.416;2023-02-19T09:48:27;3.60;99.90
20158;DHT22;10239;56.820;24.416;2023-02-19T09:50:58;3.60;99.90
20158;DHT22;10239;56.820;24.416;2023-02-19T09:53:38;3.70;99.90
20158;DHT22;10239;56.820;24.416;2023-02-19T09:56:07;3.70;99.90
20158;DHT22;10239;56.820;24.416;2023-02-19T09:58:53;3.80;99.90
20158;DHT22;10239;56.820;24.416;2023-02-19T10:01:27;3.80;99.90
20158;DHT22;10239;56.820;24.416;2023-02-19T10:03:55;3.80;99.90
20158;DHT22;10239;56.820;24.416;2023-02-19T10:06:25;3.90;99.90
20158;DHT22;10239;56.820;24.416;2023-02-19T10:09:20;3.90;99.90
20158;DHT22;10239;56.820;24.416;2023-02-19T10:11:49;3.90;99.90
20158;DHT22;10239;56.820;24.416;2023-02-19T10:14:37;4.00;99.90
20158;DHT22;10239;56.820;24.416;2023-02-19T10:17:23;4.00;99.90
20158;DHT22;10239;56.820;24.416;2023-02-19T10:19:51;4.00;99.90
20158;DHT22;10239;56.820;24.416;2023-02-19T10:22:19;4.10;99.90
20158;DHT22;10239;56.820;24.416;2023-02-19T10:24:54;4.20;99.90
20158;DHT22;10239;56.820;24.416;2023-02-19T10:27:25;4.30;99.90
20158;DHT22;10239;56.820;24.416;2023-02-19T10:29:55;4.30;99.90
20158;DHT22;10239;56.820;24.416;2023-02-19T10:32:25;4.30;99.90
20158;DHT22;10239;56.820;24.416;2023-02-19T10:35:14;4.40;99.90
20158;DHT22;10239;56.820;24.416;2023-02-19T10:37:51;4.20;99.90
20158;DHT22;10239;56.820;24.416;2023-02-19T10:40:21;4.00;99.90
20158;DHT22;10239;56.820;24.416;2023-02-19T10:42:56;3.90;99.90
20158;DHT22;10239;56.820;24.416;2023-02-19T10:45:45;3.90;99.90
20158;DHT22;10239;56.820;24.416;2023-02-19T10:48:39;3.90;99.90
20158;DHT22;10239;56.820;24.416;2023-02-19T10:51:10;4.10;99.90
20158;DHT22;10239;56.820;24.416;2023-02-19T10:53:45;4.10;99.90
20158;DHT22;10239;56.820;24.416;2023-02-19T10:56:27;4.00;99.90
20158;DHT22;10239;56.820;24.416;2023-02-19T11:02:02;3.90;99.90
20158;DHT22;10239;56.820;24.416;2023-02-19T11:04:32;4.00;99.90
20158;DHT22;10239;56.820;24.416;2023-02-19T11:07:09;4.00;99.90
20158;DHT22;10239;56.820;24.416;2023-02-19T11:09:39;4.10;99.90
20158;DHT22;10239;56.820;24.416;2023-02-19T11:12:09;4.10;99.90
20158;DHT22;10239;56.820;24.416;2023-02-19T11:14:42;4.00;99.90
20158;DHT22;10239;56.820;24.416;2023-02-19T11:17:22;4.00;99.90
20158;DHT22;10239;56.820;24.416;2023-02-19T11:19:53;3.80;99.90
20158;DHT22;10239;56.820;24.416;2023-02-19T11:22:39;3.80;99.90
20158;DHT22;10239;56.820;24.416;2023-02-19T11:27:59;4.00;99.90
20158;DHT22;10239;56.820;24.416;2023-02-19T11:30:41;4.10;99.90
20158;DHT22;10239;56.820;24.416;2023-02-19T11:35:44;4.00;99.90
20158;DHT22;10239;56.820;24.416;2023-02-19T11:38:15;4.00;99.90
20158;DHT22;10239;56.820;24.416;2023-02-19T11:57:04;3.70;99.90
20158;DHT22;10239;56.820;24.416;2023-02-19T11:59:45;3.80;99.90
20158;DHT22;10239;56.820;24.416;2023-02-19T12:02:25;3.80;99.90
20158;DHT22;10239;56.820;24.416;2023-02-19T12:10:58;4.00;99.90
20158;DHT22;10239;56.820;24.416;2023-02-19T12:28:19;3.90;99.90
20158;DHT22;10239;56.820;24.416;2023-02-19T12:45:32;3.80;99.90
20158;DHT22;10239;56.820;24.416;2023-02-19T12:50:47;3.60;99.90
20158;DHT22;10239;56.820;24.416;2023-02-19T12:53:22;3.50;99.90
20158;DHT22;10239;56.820;24.416;2023-02-19T12:55:51;3.30;99.90
20158;DHT22;10239;56.820;24.416;2023-02-19T12:58:57;3.20;99.90
20158;DHT22;10239;56.820;24.416;2023-02-19T13:01:31;3.00;99.90
20158;DHT22;10239;56.820;24.416;2023-02-19T13:04:14;2.90;99.90
20158;DHT22;10239;56.820;24.416;2023-02-19T13:09:38;2.90;99.90
20158;DHT22;10239;56.820;24.416;2023-02-19T13:12:10;2.80;99.90
20158;DHT22;10239;56.820;24.416;2023-02-19T13:14:50;2.90;99.90
20158;DHT22;10239;56.820;24.416;2023-02-19T13:20:38;3.00;99.90
20158;DHT22;10239;56.820;24.416;2023-02-19T13:23:14;3.10;99.90
20158;DHT22;10239;56.820;24.416;2023-02-19T13:32:48;3.10;99.90
20158;DHT22;10239;56.820;24.416;2023-02-19T13:35:23;3.20;99.90
20158;DHT22;10239;56.820;24.416;2023-02-19T13:37:53;3.20;99.90
20158;DHT22;10239;56.820;24.416;2023-02-19T13:43:05;3.10;99.90
20158;DHT22;10239;56.820;24.416;2023-02-19T13:45:40;3.00;99.90
20158;DHT22;10239;56.820;24.416;2023-02-19T13:48:25;3.00;99.90
20158;DHT22;10239;56.820;24.416;2023-02-19T13:53:56;2.80;99.90
20158;DHT22;10239;56.820;24.416;2023-02-19T14:04:23;2.70;99.90
20158;DHT22;10239;56.820;24.416;2023-02-19T14:33:29;2.90;99.90
20158;DHT22;10239;56.820;24.416;2023-02-19T14:38:58;2.90;99.90
20158;DHT22;10239;56.820;24.416;2023-02-19T14:41:30;2.90;99.90
20158;DHT22;10239;56.820;24.416;2023-02-19T14:43:59;2.80;99.90
20158;DHT22;10239;56.820;24.416;2023-02-19T14:46:36;2.80;99.90
20158;DHT22;10239;56.820;24.416;2023-02-19T14:49:35;2.70;99.90
20158;DHT22;10239;56.820;24.416;2023-02-19T14:52:10;2.70;99.90
20158;DHT22;10239;56.820;24.416;2023-02-19T14:57:22;2.70;99.90
20158;DHT22;10239;56.820;24.416;2023-02-19T14:59:56;2.70;99.90
20158;DHT22;10239;56.820;24.416;2023-02-19T15:02:30;2.70;99.90
20158;DHT22;10239;56.820;24.416;2023-02-19T15:04:57;2.80;99.90
20158;DHT22;10239;56.820;24.416;2023-02-19T15:07:31;2.80;99.90
20158;DHT22;10239;56.820;24.416;2023-02-19T15:10:04;2.80;99.90
20158;DHT22;10239;56.820;24.416;2023-02-19T15:13:02;2.80;99.90
20158;DHT22;10239;56.820;24.416;2023-02-19T15:15:29;2.80;99.90
20158;DHT22;10239;56.820;24.416;2023-02-19T15:18:00;2.80;99.90
20158;DHT22;10239;56.820;24.416;2023-02-19T15:20:31;2.80;99.90
20158;DHT22;10239;56.820;24.416;2023-02-19T15:23:00;2.80;99.90
20158;DHT22;10239;56.820;24.416;2023-02-19T15:25:35;2.90;99.90
20158;DHT22;10239;56.820;24.416;2023-02-19T15:31:13;2.90;99.90
20158;DHT22;10239;56.820;24.416;2023-02-19T15:33:39;2.80;99.90
20158;DHT22;10239;56.820;24.416;2023-02-19T15:36:20;2.90;99.90
20158;DHT22;10239;56.820;24.416;2023-02-19T15:38:54;2.90;99.90
20158;DHT22;10239;56.820;24.416;2023-02-19T15:41:25;2.90;99.90
20158;DHT22;10239;56.820;24.416;2023-02-19T15:44:01;2.70;99.90
20158;DHT22;10239;56.820;24.416;2023-02-19T15:46:34;2.80;99.90
20158;DHT22;10239;56.820;24.416;2023-02-19T15:49:11;2.80;99.90
20158;DHT22;10239;56.820;24.416;2023-02-19T15:51:47;2.70;99.90
20158;DHT22;10239;56.820;24.416;2023-02-19T15:54:28;2.70;99.90
20158;DHT22;10239;56.820;24.416;2023-02-19T15:57:00;2.80;99.90
20158;DHT22;10239;56.820;24.416;2023-02-19T15:59:47;2.70;99.90
20158;DHT22;10239;56.820;24.416;2023-02-19T16:02:16;2.80;99.90
20158;DHT22;10239;56.820;24.416;2023-02-19T16:04:44;2.70;99.90
20158;DHT22;10239;56.820;24.416;2023-02-19T16:07:26;2.80;99.90
20158;DHT22;10239;56.820;24.416;2023-02-19T16:10:18;2.80;99.90
20158;DHT22;10239;56.820;24.416;2023-02-19T16:13:00;2.80;99.90
20158;DHT22;10239;56.820;24.416;2023-02-19T16:15:30;2.80;99.90
20158;DHT22;10239;56.820;24.416;2023-02-19T16:17:59;2.80;99.90
20158;DHT22;10239;56.820;24.416;2023-02-19T16:20:28;2.80;99.90
20158;DHT22;10239;56.820;24.416;2023-02-19T16:23:04;2.80;99.90
20158;DHT22;10239;56.820;24.416;2023-02-19T16:25:39;2.70;99.90
20158;DHT22;10239;56.820;24.416;2023-02-19T16:28:16;2.80;99.90
20158;DHT22;10239;56.820;24.416;2023-02-19T16:30:44;2.70;99.90
20158;DHT22;10239;56.820;24.416;2023-02-19T16:33:30;2.70;99.90
20158;DHT22;10239;56.820;24.416;2023-02-19T16:47:03;2.70;99.90
20158;DHT22;10239;56.820;24.416;2023-02-19T16:49:31;2.60;99.90
20158;DHT22;10239;56.820;24.416;2023-02-19T16:51:59;2.60;99.90
20158;DHT22;10239;56.820;24.416;2023-02-19T16:54:30;2.60;99.90
20158;DHT22;10239;56.820;24.416;2023-02-19T16:56:58;2.70;99.90
20158;DHT22;10239;56.820;24.416;2023-02-19T16:59:25;2.60;99.90
20158;DHT22;10239;56.820;24.416;2023-02-19T17:01:53;2.60;99.90
20158;DHT22;10239;56.820;24.416;2023-02-19T17:04:21;2.60;99.90
20158;DHT22;10239;56.820;24.416;2023-02-19T17:06:48;2.60;99.90
20158;DHT22;10239;56.820;24.416;2023-02-19T17:09:16;2.60;99.90
20158;DHT22;10239;56.820;24.416;2023-02-19T17:11:43;2.60;99.90
20158;DHT22;10239;56.820;24.416;2023-02-19T17:14:12;2.60;99.90
20158;DHT22;10239;56.820;24.416;2023-02-19T17:16:39;2.70;99.90
20158;DHT22;10239;56.820;24.416;2023-02-19T17:19:19;2.60;99.90
20158;DHT22;10239;56.820;24.416;2023-02-19T17:21:48;2.60;99.90
20158;DHT22;10239;56.820;24.416;2023-02-19T17:24:16;2.50;99.90
20158;DHT22;10239;56.820;24.416;2023-02-19T17:26:43;2.60;99.90
20158;DHT22;10239;56.820;24.416;2023-02-19T17:29:13;2.60;99.90
20158;DHT22;10239;56.820;24.416;2023-02-19T17:31:41;2.60;99.90
20158;DHT22;10239;56.820;24.416;2023-02-19T17:34:08;2.60;99.90
20158;DHT22;10239;56.820;24.416;2023-02-19T17:36:36;2.70;99.90
20158;DHT22;10239;56.820;24.416;2023-02-19T17:39:12;2.60;99.90
20158;DHT22;10239;56.820;24.416;2023-02-19T17:41:42;2.60;99.90
20158;DHT22;10239;56.820;24.416;2023-02-19T17:44:10;2.50;99.90
20158;DHT22;10239;56.820;24.416;2023-02-19T17:46:38;2.70;99.90
20158;DHT22;10239;56.820;24.416;2023-02-19T17:49:06;2.60;99.90
20158;DHT22;10239;56.820;24.416;2023-02-19T17:51:34;2.60;99.90
20158;DHT22;10239;56.820;24.416;2023-02-19T17:54:01;2.50;99.90
20158;DHT22;10239;56.820;24.416;2023-02-19T17:56:29;2.50;99.90
20158;DHT22;10239;56.820;24.416;2023-02-19T17:58:56;2.50;99.90
20158;DHT22;10239;56.820;24.416;2023-02-19T18:01:24;2.50;99.90
20158;DHT22;10239;56.820;24.416;2023-02-19T18:03:51;2.40;99.90
20158;DHT22;10239;56.820;24.416;2023-02-19T18:06:19;2.40;99.90
20158;DHT22;10239;56.820;24.416;2023-02-19T18:08:51;2.30;99.90
20158;DHT22;10239;56.820;24.416;2023-02-19T18:11:20;2.40;99.90
20158;DHT22;10239;56.820;24.416;2023-02-19T18:13:49;2.30;99.90
20158;DHT22;10239;56.820;24.416;2023-02-19T18:16:18;2.30;99.90
20158;DHT22;10239;56.820;24.416;2023-02-19T18:18:46;2.20;99.90
20158;DHT22;10239;56.820;24.416;2023-02-19T18:21:14;2.30;99.90
20158;DHT22;10239;56.820;24.416;2023-02-19T18:23:41;2.30;99.90
20158;DHT22;10239;56.820;24.416;2023-02-19T18:26:10;2.30;99.90
20158;DHT22;10239;56.820;24.416;2023-02-19T18:28:38;2.30;99.90
20158;DHT22;10239;56.820;24.416;2023-02-19T18:31:05;2.30;99.90
20158;DHT22;10239;56.820;24.416;2023-02-19T18:33:33;2.40;99.90
20158;DHT22;10239;56.820;24.416;2023-02-19T18:36:02;2.20;99.90
20158;DHT22;10239;56.820;24.416;2023-02-19T18:38:30;2.30;99.90